sensor_id;sensor_type;location;lat;lon;timestamp;temperature;humidity
38500;DHT22;24269;51.894;4.622;2022-08-25T00:00:40;22.20;99.90
38500;DHT22;24269;51.894;4.622;2022-08-25T00:03:06;22.20;99.90
38500;DHT22;24269;51.894;4.622;2022-08-25T00:05:32;22.10;99.90
38500;DHT22;24269;51.894;4.622;2022-08-25T00:07:58;22.10;99.90
38500;DHT22;24269;51.894;4.622;2022-08-25T00:10:23;22.10;99.90
38500;DHT22;24269;51.894;4.622;2022-08-25T00:12:49;22.00;99.90
38500;DHT22;24269;51.894;4.622;2022-08-25T00:15:15;22.00;99.90
38500;DHT22;24269;51.894;4.622;2022-08-25T00:17:40;22.00;99.90
38500;DHT22;24269;51.894;4.622;2022-08-25T00:20:06;22.00;99.90
38500;DHT22;24269;51.894;4.622;2022-08-25T00:22:34;22.00;99.90
38500;DHT22;24269;51.894;4.622;2022-08-25T00:25:00;21.90;99.90
38500;DHT22;24269;51.894;4.622;2022-08-25T00:27:26;21.90;99.90
38500;DHT22;24269;51.894;4.622;2022-08-25T00:29:52;21.90;99.90
38500;DHT22;24269;51.894;4.622;2022-08-25T00:32:18;21.90;99.90
38500;DHT22;24269;51.894;4.622;2022-08-25T00:34:44;21.90;99.90
38500;DHT22;24269;51.894;4.622;2022-08-25T00:37:10;21.80;99.90
38500;DHT22;24269;51.894;4.622;2022-08-25T00:39:37;21.90;99.90
38500;DHT22;24269;51.894;4.622;2022-08-25T00:42:03;21.80;99.90
38500;DHT22;24269;51.894;4.622;2022-08-25T00:44:31;21.80;99.90
38500;DHT22;24269;51.894;4.622;2022-08-25T00:47:00;21.80;99.90
38500;DHT22;24269;51.894;4.622;2022-08-25T00:49:36;21.70;99.90
38500;DHT22;24269;51.894;4.622;2022-08-25T00:52:18;21.70;99.90
38500;DHT22;24269;51.894;4.622;2022-08-25T00:54:46;21.70;99.90
38500;DHT22;24269;51.894;4.622;2022-08-25T00:57:17;21.70;99.90
38500;DHT22;24269;51.894;4.622;2022-08-25T00:59:44;21.70;99.90
38500;DHT22;24269;51.894;4.622;2022-08-25T01:02:11;21.70;99.90
38500;DHT22;24269;51.894;4.622;2022-08-25T01:04:37;21.60;99.90
38500;DHT22;24269;51.894;4.622;2022-08-25T01:07:04;21.60;99.90
38500;DHT22;24269;51.894;4.622;2022-08-25T01:09:31;21.60;99.90
38500;DHT22;24269;51.894;4.622;2022-08-25T01:11:58;21.60;99.90
38500;DHT22;24269;51.894;4.622;2022-08-25T01:14:26;21.60;99.90
38500;DHT22;24269;51.894;4.622;2022-08-25T01:16:52;21.60;99.90
38500;DHT22;24269;51.894;4.622;2022-08-25T01:19:18;21.50;99.90
38500;DHT22;24269;51.894;4.622;2022-08-25T01:21:48;21.50;99.90
38500;DHT22;24269;51.894;4.622;2022-08-25T01:26:50;21.40;99.90
38500;DHT22;24269;51.894;4.622;2022-08-25T01:29:15;21.40;99.90
38500;DHT22;24269;51.894;4.622;2022-08-25T01:32:02;21.40;99.90
38500;DHT22;24269;51.894;4.622;2022-08-25T01:34:32;21.40;99.90
38500;DHT22;24269;51.894;4.622;2022-08-25T01:36:59;21.40;99.90
38500;DHT22;24269;51.894;4.622;2022-08-25T01:39:26;21.30;99.90
38500;DHT22;24269;51.894;4.622;2022-08-25T01:44:30;21.30;99.90
38500;DHT22;24269;51.894;4.622;2022-08-25T01:46:59;21.30;99.90
38500;DHT22;24269;51.894;4.622;2022-08-25T01:49:24;21.20;99.90
38500;DHT22;24269;51.894;4.622;2022-08-25T01:51:55;21.20;99.90
38500;DHT22;24269;51.894;4.622;2022-08-25T01:54:21;21.20;99.90
38500;DHT22;24269;51.894;4.622;2022-08-25T01:56:46;21.20;99.90
38500;DHT22;24269;51.894;4.622;2022-08-25T01:59:15;21.20;99.90
38500;DHT22;24269;51.894;4.622;2022-08-25T02:01:41;21.20;99.90
38500;DHT22;24269;51.894;4.622;2022-08-25T02:04:07;21.10;99.90
38500;DHT22;24269;51.894;4.622;2022-08-25T02:06:34;21.10;99.90
38500;DHT22;24269;51.894;4.622;2022-08-25T02:09:06;21.10;99.90
38500;DHT22;24269;51.894;4.622;2022-08-25T02:11:32;21.10;99.90
38500;DHT22;24269;51.894;4.622;2022-08-25T02:14:00;21.10;99.90
38500;DHT22;24269;51.894;4.622;2022-08-25T02:16:28;21.00;99.90
38500;DHT22;24269;51.894;4.622;2022-08-25T02:18:55;21.00;99.90
38500;DHT22;24269;51.894;4.622;2022-08-25T02:21:21;21.00;99.90
38500;DHT22;24269;51.894;4.622;2022-08-25T02:23:47;21.00;99.90
38500;DHT22;24269;51.894;4.622;2022-08-25T02:26:13;21.00;99.90
38500;DHT22;24269;51.894;4.622;2022-08-25T02:28:47;20.90;99.90
38500;DHT22;24269;51.894;4.622;2022-08-25T02:31:13;20.90;99.90
38500;DHT22;24269;51.894;4.622;2022-08-25T02:33:39;20.90;99.90
38500;DHT22;24269;51.894;4.622;2022-08-25T02:36:05;20.90;99.90
38500;DHT22;24269;51.894;4.622;2022-08-25T02:38:32;20.80;99.90
38500;DHT22;24269;51.894;4.622;2022-08-25T02:40:58;20.80;99.90
38500;DHT22;24269;51.894;4.622;2022-08-25T02:43:25;20.80;99.90
38500;DHT22;24269;51.894;4.622;2022-08-25T02:45:52;20.80;99.90
38500;DHT22;24269;51.894;4.622;2022-08-25T02:48:18;20.80;99.90
38500;DHT22;24269;51.894;4.622;2022-08-25T02:50:48;20.70;99.90
38500;DHT22;24269;51.894;4.622;2022-08-25T02:53:16;20.70;99.90
38500;DHT22;24269;51.894;4.622;2022-08-25T02:55:42;20.70;99.90
38500;DHT22;24269;51.894;4.622;2022-08-25T02:58:08;20.70;99.90
38500;DHT22;24269;51.894;4.622;2022-08-25T03:00:35;20.60;99.90
38500;DHT22;24269;51.894;4.622;2022-08-25T03:03:01;20.60;99.90
38500;DHT22;24269;51.894;4.622;2022-08-25T03:05:26;20.60;99.90
38500;DHT22;24269;51.894;4.622;2022-08-25T03:07:52;20.60;99.90
38500;DHT22;24269;51.894;4.622;2022-08-25T03:10:18;20.60;99.90
38500;DHT22;24269;51.894;4.622;2022-08-25T03:12:44;20.60;99.90
38500;DHT22;24269;51.894;4.622;2022-08-25T03:15:11;20.50;99.90
38500;DHT22;24269;51.894;4.622;2022-08-25T03:17:37;20.50;99.90
38500;DHT22;24269;51.894;4.622;2022-08-25T03:20:05;20.50;99.90
38500;DHT22;24269;51.894;4.622;2022-08-25T03:22:31;20.40;99.90
38500;DHT22;24269;51.894;4.622;2022-08-25T03:24:57;20.40;99.90
38500;DHT22;24269;51.894;4.622;2022-08-25T03:27:43;20.40;99.90
38500;DHT22;24269;51.894;4.622;2022-08-25T03:30:10;20.40;99.90
38500;DHT22;24269;51.894;4.622;2022-08-25T03:32:36;20.40;99.90
38500;DHT22;24269;51.894;4.622;2022-08-25T03:35:01;20.40;99.90
38500;DHT22;24269;51.894;4.622;2022-08-25T03:37:27;20.30;99.90
38500;DHT22;24269;51.894;4.622;2022-08-25T03:39:53;20.30;99.90
38500;DHT22;24269;51.894;4.622;2022-08-25T03:42:18;20.30;99.90
38500;DHT22;24269;51.894;4.622;2022-08-25T03:44:44;20.30;99.90
38500;DHT22;24269;51.894;4.622;2022-08-25T03:47:10;20.30;99.90
38500;DHT22;24269;51.894;4.622;2022-08-25T03:49:35;20.20;99.90
38500;DHT22;24269;51.894;4.622;2022-08-25T03:52:01;20.20;99.90
38500;DHT22;24269;51.894;4.622;2022-08-25T03:54:27;20.20;99.90
38500;DHT22;24269;51.894;4.622;2022-08-25T03:56:53;20.20;99.90
38500;DHT22;24269;51.894;4.622;2022-08-25T03:59:19;20.20;99.90
38500;DHT22;24269;51.894;4.622;2022-08-25T04:01:46;20.20;99.90
38500;DHT22;24269;51.894;4.622;2022-08-25T04:04:14;20.20;99.90
38500;DHT22;24269;51.894;4.622;2022-08-25T04:06:41;20.10;99.90
38500;DHT22;24269;51.894;4.622;2022-08-25T04:09:08;20.20;99.90
38500;DHT22;24269;51.894;4.622;2022-08-25T04:11:34;20.20;99.90
38500;DHT22;24269;51.894;4.622;2022-08-25T04:14:00;20.10;99.90
38500;DHT22;24269;51.894;4.622;2022-08-25T04:16:29;20.10;99.90
38500;DHT22;24269;51.894;4.622;2022-08-25T04:18:57;20.10;99.90
38500;DHT22;24269;51.894;4.622;2022-08-25T04:21:24;20.10;99.90
38500;DHT22;24269;51.894;4.622;2022-08-25T04:23:50;20.10;99.90
38500;DHT22;24269;51.894;4.622;2022-08-25T04:28:44;20.00;99.90
38500;DHT22;24269;51.894;4.622;2022-08-25T04:31:12;20.00;99.90
38500;DHT22;24269;51.894;4.622;2022-08-25T04:33:39;20.00;99.90
38500;DHT22;24269;51.894;4.622;2022-08-25T04:36:06;20.00;99.90
38500;DHT22;24269;51.894;4.622;2022-08-25T04:38:33;20.00;99.90
38500;DHT22;24269;51.894;4.622;2022-08-25T04:41:01;20.00;99.90
38500;DHT22;24269;51.894;4.622;2022-08-25T04:43:29;20.00;99.90
38500;DHT22;24269;51.894;4.622;2022-08-25T04:45:56;19.90;99.90
38500;DHT22;24269;51.894;4.622;2022-08-25T04:48:21;19.90;99.90
38500;DHT22;24269;51.894;4.622;2022-08-25T04:50:47;19.90;99.90
38500;DHT22;24269;51.894;4.622;2022-08-25T04:53:13;19.90;99.90
38500;DHT22;24269;51.894;4.622;2022-08-25T04:55:43;19.90;99.90
38500;DHT22;24269;51.894;4.622;2022-08-25T04:58:09;19.80;99.90
38500;DHT22;24269;51.894;4.622;2022-08-25T05:00:36;19.80;99.90
38500;DHT22;24269;51.894;4.622;2022-08-25T05:03:04;19.80;99.90
38500;DHT22;24269;51.894;4.622;2022-08-25T05:05:30;19.80;99.90
38500;DHT22;24269;51.894;4.622;2022-08-25T05:07:56;19.80;99.90
38500;DHT22;24269;51.894;4.622;2022-08-25T05:10:22;19.80;99.90
38500;DHT22;24269;51.894;4.622;2022-08-25T05:12:47;19.80;99.90
38500;DHT22;24269;51.894;4.622;2022-08-25T05:15:13;19.80;99.90
38500;DHT22;24269;51.894;4.622;2022-08-25T05:17:57;19.80;99.90
38500;DHT22;24269;51.894;4.622;2022-08-25T05:20:23;19.80;99.90
38500;DHT22;24269;51.894;4.622;2022-08-25T05:22:50;19.70;99.90
38500;DHT22;24269;51.894;4.622;2022-08-25T05:25:15;19.80;99.90
38500;DHT22;24269;51.894;4.622;2022-08-25T05:27:41;19.70;99.90
38500;DHT22;24269;51.894;4.622;2022-08-25T05:30:09;19.70;99.90
38500;DHT22;24269;51.894;4.622;2022-08-25T05:32:35;19.70;99.90
38500;DHT22;24269;51.894;4.622;2022-08-25T05:35:01;19.70;99.90
38500;DHT22;24269;51.894;4.622;2022-08-25T05:37:26;19.70;99.90
38500;DHT22;24269;51.894;4.622;2022-08-25T05:39:52;19.70;99.90
38500;DHT22;24269;51.894;4.622;2022-08-25T05:42:17;19.70;99.90
38500;DHT22;24269;51.894;4.622;2022-08-25T05:44:43;19.70;99.90
38500;DHT22;24269;51.894;4.622;2022-08-25T05:47:09;19.80;99.90
38500;DHT22;24269;51.894;4.622;2022-08-25T05:49:34;19.90;99.90
38500;DHT22;24269;51.894;4.622;2022-08-25T05:52:00;20.00;99.90
38500;DHT22;24269;51.894;4.622;2022-08-25T05:54:26;20.10;99.90
38500;DHT22;24269;51.894;4.622;2022-08-25T05:56:51;20.10;99.90
38500;DHT22;24269;51.894;4.622;2022-08-25T05:59:17;20.20;99.90
38500;DHT22;24269;51.894;4.622;2022-08-25T06:01:42;20.30;99.90
38500;DHT22;24269;51.894;4.622;2022-08-25T06:04:27;20.30;99.90
38500;DHT22;24269;51.894;4.622;2022-08-25T06:06:52;20.40;99.90
38500;DHT22;24269;51.894;4.622;2022-08-25T06:09:20;20.40;99.90
38500;DHT22;24269;51.894;4.622;2022-08-25T06:11:46;20.50;99.90
38500;DHT22;24269;51.894;4.622;2022-08-25T06:14:12;20.50;99.90
38500;DHT22;24269;51.894;4.622;2022-08-25T06:16:38;20.50;99.90
38500;DHT22;24269;51.894;4.622;2022-08-25T06:19:06;20.60;99.90
38500;DHT22;24269;51.894;4.622;2022-08-25T06:21:32;20.60;99.90
38500;DHT22;24269;51.894;4.622;2022-08-25T06:23:57;20.70;99.90
38500;DHT22;24269;51.894;4.622;2022-08-25T06:26:24;20.70;99.90
38500;DHT22;24269;51.894;4.622;2022-08-25T06:28:50;20.70;99.90
38500;DHT22;24269;51.894;4.622;2022-08-25T06:31:16;20.80;99.90
38500;DHT22;24269;51.894;4.622;2022-08-25T06:33:42;20.80;99.90
38500;DHT22;24269;51.894;4.622;2022-08-25T06:36:08;20.90;99.90
38500;DHT22;24269;51.894;4.622;2022-08-25T06:38:34;21.00;99.90
38500;DHT22;24269;51.894;4.622;2022-08-25T06:41:02;21.00;99.90
38500;DHT22;24269;51.894;4.622;2022-08-25T06:43:28;21.10;99.90
38500;DHT22;24269;51.894;4.622;2022-08-25T06:45:54;21.20;99.90
38500;DHT22;24269;51.894;4.622;2022-08-25T06:48:19;21.30;99.90
38500;DHT22;24269;51.894;4.622;2022-08-25T06:50:45;21.40;99.90
38500;DHT22;24269;51.894;4.622;2022-08-25T06:53:11;21.40;99.90
38500;DHT22;24269;51.894;4.622;2022-08-25T06:55:37;21.40;99.90
38500;DHT22;24269;51.894;4.622;2022-08-25T06:58:03;21.50;99.90
38500;DHT22;24269;51.894;4.622;2022-08-25T07:00:30;21.50;99.90
38500;DHT22;24269;51.894;4.622;2022-08-25T07:02:55;21.50;99.90
38500;DHT22;24269;51.894;4.622;2022-08-25T07:05:21;21.50;99.90
38500;DHT22;24269;51.894;4.622;2022-08-25T07:07:47;21.60;99.90
38500;DHT22;24269;51.894;4.622;2022-08-25T07:10:13;21.60;99.90
38500;DHT22;24269;51.894;4.622;2022-08-25T07:12:39;21.70;99.90
38500;DHT22;24269;51.894;4.622;2022-08-25T07:15:05;21.80;99.90
38500;DHT22;24269;51.894;4.622;2022-08-25T07:17:30;21.90;99.90
38500;DHT22;24269;51.894;4.622;2022-08-25T07:19:56;22.10;99.90
38500;DHT22;24269;51.894;4.622;2022-08-25T07:22:22;22.20;99.90
38500;DHT22;24269;51.894;4.622;2022-08-25T07:24:47;22.20;99.90
38500;DHT22;24269;51.894;4.622;2022-08-25T07:27:13;22.40;99.90
38500;DHT22;24269;51.894;4.622;2022-08-25T07:29:39;22.50;99.90
38500;DHT22;24269;51.894;4.622;2022-08-25T07:32:05;22.70;99.90
38500;DHT22;24269;51.894;4.622;2022-08-25T07:34:31;22.90;99.90
38500;DHT22;24269;51.894;4.622;2022-08-25T07:37:17;23.10;99.90
38500;DHT22;24269;51.894;4.622;2022-08-25T07:39:43;23.40;99.90
38500;DHT22;24269;51.894;4.622;2022-08-25T07:42:08;23.50;99.90
38500;DHT22;24269;51.894;4.622;2022-08-25T07:44:36;23.70;99.90
38500;DHT22;24269;51.894;4.622;2022-08-25T07:47:02;23.90;99.90
38500;DHT22;24269;51.894;4.622;2022-08-25T07:49:27;24.10;99.90
38500;DHT22;24269;51.894;4.622;2022-08-25T07:51:54;24.30;99.90
38500;DHT22;24269;51.894;4.622;2022-08-25T07:54:20;24.50;99.90
38500;DHT22;24269;51.894;4.622;2022-08-25T07:56:46;24.70;99.90
38500;DHT22;24269;51.894;4.622;2022-08-25T07:59:11;24.80;99.90
38500;DHT22;24269;51.894;4.622;2022-08-25T08:01:37;24.80;99.90
38500;DHT22;24269;51.894;4.622;2022-08-25T08:04:04;24.90;99.90
38500;DHT22;24269;51.894;4.622;2022-08-25T08:06:30;24.90;99.90
38500;DHT22;24269;51.894;4.622;2022-08-25T08:08:56;24.90;99.90
38500;DHT22;24269;51.894;4.622;2022-08-25T08:11:32;24.90;99.90
38500;DHT22;24269;51.894;4.622;2022-08-25T08:13:59;25.10;99.90
38500;DHT22;24269;51.894;4.622;2022-08-25T08:16:27;25.10;99.90
38500;DHT22;24269;51.894;4.622;2022-08-25T08:18:54;25.20;99.90
38500;DHT22;24269;51.894;4.622;2022-08-25T08:21:23;25.30;99.90
38500;DHT22;24269;51.894;4.622;2022-08-25T08:23:49;25.40;99.90
38500;DHT22;24269;51.894;4.622;2022-08-25T08:26:17;25.50;99.90
38500;DHT22;24269;51.894;4.622;2022-08-25T08:28:43;25.60;99.90
38500;DHT22;24269;51.894;4.622;2022-08-25T08:31:09;25.70;99.90
38500;DHT22;24269;51.894;4.622;2022-08-25T08:33:34;25.70;99.90
38500;DHT22;24269;51.894;4.622;2022-08-25T08:36:05;25.90;99.90
38500;DHT22;24269;51.894;4.622;2022-08-25T08:38:32;26.00;99.90
38500;DHT22;24269;51.894;4.622;2022-08-25T08:52:59;26.50;99.90
38500;DHT22;24269;51.894;4.622;2022-08-25T08:55:29;26.60;99.90
38500;DHT22;24269;51.894;4.622;2022-08-25T08:57:58;26.70;99.90
38500;DHT22;24269;51.894;4.622;2022-08-25T09:00:25;26.80;99.90
38500;DHT22;24269;51.894;4.622;2022-08-25T09:03:05;26.90;99.90
38500;DHT22;24269;51.894;4.622;2022-08-25T09:05:37;27.00;99.90
38500;DHT22;24269;51.894;4.622;2022-08-25T09:08:10;27.20;99.90
38500;DHT22;24269;51.894;4.622;2022-08-25T09:11:02;27.40;99.90
38500;DHT22;24269;51.894;4.622;2022-08-25T09:13:32;27.70;99.90
38500;DHT22;24269;51.894;4.622;2022-08-25T09:16:24;27.90;99.90
38500;DHT22;24269;51.894;4.622;2022-08-25T09:19:34;28.00;99.90
38500;DHT22;24269;51.894;4.622;2022-08-25T09:27:25;28.40;99.90
38500;DHT22;24269;51.894;4.622;2022-08-25T09:30:02;28.40;99.90
38500;DHT22;24269;51.894;4.622;2022-08-25T09:32:41;28.40;99.90
38500;DHT22;24269;51.894;4.622;2022-08-25T09:35:19;28.20;99.90
38500;DHT22;24269;51.894;4.622;2022-08-25T09:38:15;28.20;99.90
38500;DHT22;24269;51.894;4.622;2022-08-25T09:40:45;28.30;99.90
38500;DHT22;24269;51.894;4.622;2022-08-25T09:43:40;28.30;99.90
38500;DHT22;24269;51.894;4.622;2022-08-25T09:46:25;28.40;99.90
38500;DHT22;24269;51.894;4.622;2022-08-25T09:48:53;28.40;99.90
38500;DHT22;24269;51.894;4.622;2022-08-25T09:53:55;28.50;99.90
38500;DHT22;24269;51.894;4.622;2022-08-25T09:56:25;28.50;99.90
38500;DHT22;24269;51.894;4.622;2022-08-25T09:58:52;28.50;99.90
38500;DHT22;24269;51.894;4.622;2022-08-25T10:03:34;28.40;99.90
38500;DHT22;24269;51.894;4.622;2022-08-25T10:06:02;28.30;99.90
38500;DHT22;24269;51.894;4.622;2022-08-25T10:08:50;28.30;99.90
38500;DHT22;24269;51.894;4.622;2022-08-25T10:11:41;28.20;99.90
38500;DHT22;24269;51.894;4.622;2022-08-25T10:14:18;28.20;99.90
38500;DHT22;24269;51.894;4.622;2022-08-25T10:16:47;28.10;99.90
38500;DHT22;24269;51.894;4.622;2022-08-25T10:19:28;28.10;99.90
38500;DHT22;24269;51.894;4.622;2022-08-25T10:24:31;28.30;99.90
38500;DHT22;24269;51.894;4.622;2022-08-25T10:34:58;29.40;99.90
38500;DHT22;24269;51.894;4.622;2022-08-25T10:37:38;29.50;99.90
38500;DHT22;24269;51.894;4.622;2022-08-25T10:40:36;29.70;99.90
38500;DHT22;24269;51.894;4.622;2022-08-25T10:46:02;30.00;99.90
38500;DHT22;24269;51.894;4.622;2022-08-25T10:51:13;30.50;99.90
38500;DHT22;24269;51.894;4.622;2022-08-25T10:54:11;30.80;99.90
38500;DHT22;24269;51.894;4.622;2022-08-25T10:56:43;30.80;99.90
38500;DHT22;24269;51.894;4.622;2022-08-25T11:08:56;31.20;99.90
38500;DHT22;24269;51.894;4.622;2022-08-25T11:11:01;31.10;99.90
38500;DHT22;24269;51.894;4.622;2022-08-25T11:13:47;30.90;99.90
38500;DHT22;24269;51.894;4.622;2022-08-25T11:16:20;30.80;99.90
38500;DHT22;24269;51.894;4.622;2022-08-25T11:18:58;30.90;99.90
38500;DHT22;24269;51.894;4.622;2022-08-25T11:26:56;31.20;99.90
38500;DHT22;24269;51.894;4.622;2022-08-25T11:29:25;31.30;99.90
38500;DHT22;24269;51.894;4.622;2022-08-25T11:31:58;31.40;99.70
38500;DHT22;24269;51.894;4.622;2022-08-25T11:34:24;31.50;98.50
38500;DHT22;24269;51.894;4.622;2022-08-25T11:37:02;31.70;97.40
38500;DHT22;24269;51.894;4.622;2022-08-25T11:39:58;31.70;97.10
38500;DHT22;24269;51.894;4.622;2022-08-25T11:42:49;31.80;96.30
38500;DHT22;24269;51.894;4.622;2022-08-25T11:45:34;32.10;98.20
38500;DHT22;24269;51.894;4.622;2022-08-25T11:51:09;32.40;95.50
38500;DHT22;24269;51.894;4.622;2022-08-25T11:53:40;32.40;93.90
38500;DHT22;24269;51.894;4.622;2022-08-25T11:56:10;32.50;94.80
38500;DHT22;24269;51.894;4.622;2022-08-25T11:58:47;32.50;93.90
38500;DHT22;24269;51.894;4.622;2022-08-25T12:12:36;33.10;93.90
38500;DHT22;24269;51.894;4.622;2022-08-25T12:15:25;33.10;94.00
38500;DHT22;24269;51.894;4.622;2022-08-25T12:23:37;33.50;93.20
38500;DHT22;24269;51.894;4.622;2022-08-25T12:28:39;33.60;90.90
38500;DHT22;24269;51.894;4.622;2022-08-25T12:31:16;33.60;91.50
38500;DHT22;24269;51.894;4.622;2022-08-25T12:36:36;33.70;91.10
38500;DHT22;24269;51.894;4.622;2022-08-25T12:39:16;33.70;91.20
38500;DHT22;24269;51.894;4.622;2022-08-25T12:41:56;33.90;90.60
38500;DHT22;24269;51.894;4.622;2022-08-25T12:44:36;34.00;91.10
38500;DHT22;24269;51.894;4.622;2022-08-25T12:47:11;34.00;90.40
38500;DHT22;24269;51.894;4.622;2022-08-25T12:49:37;34.10;90.40
38500;DHT22;24269;51.894;4.622;2022-08-25T12:57:04;34.40;90.30
38500;DHT22;24269;51.894;4.622;2022-08-25T12:59:40;34.40;88.10
38500;DHT22;24269;51.894;4.622;2022-08-25T13:10:51;35.00;90.50
38500;DHT22;24269;51.894;4.622;2022-08-25T13:16:21;35.40;91.10
38500;DHT22;24269;51.894;4.622;2022-08-25T13:18:48;35.50;91.00
38500;DHT22;24269;51.894;4.622;2022-08-25T13:21:24;35.60;90.70
38500;DHT22;24269;51.894;4.622;2022-08-25T13:23:54;35.60;89.00
38500;DHT22;24269;51.894;4.622;2022-08-25T13:28:58;35.70;90.40
38500;DHT22;24269;51.894;4.622;2022-08-25T13:31:25;35.70;90.10
38500;DHT22;24269;51.894;4.622;2022-08-25T13:34:06;35.60;88.60
38500;DHT22;24269;51.894;4.622;2022-08-25T13:36:41;35.20;85.60
38500;DHT22;24269;51.894;4.622;2022-08-25T13:39:26;35.00;88.00
38500;DHT22;24269;51.894;4.622;2022-08-25T13:41:54;34.80;88.40
38500;DHT22;24269;51.894;4.622;2022-08-25T13:44:25;34.50;88.90
38500;DHT22;24269;51.894;4.622;2022-08-25T13:47:15;34.20;89.90
38500;DHT22;24269;51.894;4.622;2022-08-25T13:49:43;33.90;90.90
38500;DHT22;24269;51.894;4.622;2022-08-25T13:52:22;33.60;89.70
38500;DHT22;24269;51.894;4.622;2022-08-25T13:54:49;33.50;90.00
38500;DHT22;24269;51.894;4.622;2022-08-25T13:57:20;33.70;92.10
38500;DHT22;24269;51.894;4.622;2022-08-25T13:59:49;34.20;91.00
38500;DHT22;24269;51.894;4.622;2022-08-25T14:02:48;34.70;88.90
38500;DHT22;24269;51.894;4.622;2022-08-25T14:05:31;35.20;88.70
38500;DHT22;24269;51.894;4.622;2022-08-25T14:07:57;35.60;92.10
38500;DHT22;24269;51.894;4.622;2022-08-25T14:10:41;35.90;90.70
38500;DHT22;24269;51.894;4.622;2022-08-25T14:18:34;36.80;90.80
38500;DHT22;24269;51.894;4.622;2022-08-25T14:21:02;37.00;90.80
38500;DHT22;24269;51.894;4.622;2022-08-25T14:23:35;37.20;88.50
38500;DHT22;24269;51.894;4.622;2022-08-25T14:26:01;37.30;89.60
38500;DHT22;24269;51.894;4.622;2022-08-25T14:28:28;37.40;88.50
38500;DHT22;24269;51.894;4.622;2022-08-25T14:31:08;37.50;89.80
38500;DHT22;24269;51.894;4.622;2022-08-25T14:34:00;37.00;81.20
38500;DHT22;24269;51.894;4.622;2022-08-25T14:36:28;37.00;84.80
38500;DHT22;24269;51.894;4.622;2022-08-25T14:38:54;37.00;84.00
38500;DHT22;24269;51.894;4.622;2022-08-25T14:41:21;37.00;88.00
38500;DHT22;24269;51.894;4.622;2022-08-25T14:43:48;37.00;90.10
38500;DHT22;24269;51.894;4.622;2022-08-25T14:46:29;37.00;90.10
38500;DHT22;24269;51.894;4.622;2022-08-25T14:49:00;37.00;90.10
38500;DHT22;24269;51.894;4.622;2022-08-25T14:51:28;37.00;89.30
38500;DHT22;24269;51.894;4.622;2022-08-25T14:53:57;37.00;87.70
38500;DHT22;24269;51.894;4.622;2022-08-25T14:56:23;37.10;88.00
38500;DHT22;24269;51.894;4.622;2022-08-25T14:58:49;37.30;90.20
38500;DHT22;24269;51.894;4.622;2022-08-25T15:01:16;37.70;90.80
38500;DHT22;24269;51.894;4.622;2022-08-25T15:03:44;37.90;90.30
38500;DHT22;24269;51.894;4.622;2022-08-25T15:06:13;37.90;89.90
38500;DHT22;24269;51.894;4.622;2022-08-25T15:08:39;37.90;89.30
38500;DHT22;24269;51.894;4.622;2022-08-25T15:11:24;37.60;89.10
38500;DHT22;24269;51.894;4.622;2022-08-25T15:13:50;37.50;88.40
38500;DHT22;24269;51.894;4.622;2022-08-25T15:16:45;37.60;88.70
38500;DHT22;24269;51.894;4.622;2022-08-25T15:19:13;37.50;90.80
38500;DHT22;24269;51.894;4.622;2022-08-25T15:21:40;37.40;91.00
38500;DHT22;24269;51.894;4.622;2022-08-25T15:24:08;37.30;90.80
38500;DHT22;24269;51.894;4.622;2022-08-25T15:26:39;37.20;91.60
38500;DHT22;24269;51.894;4.622;2022-08-25T15:29:07;36.90;92.20
38500;DHT22;24269;51.894;4.622;2022-08-25T15:31:32;36.80;92.70
38500;DHT22;24269;51.894;4.622;2022-08-25T15:33:58;36.50;92.20
38500;DHT22;24269;51.894;4.622;2022-08-25T15:36:24;36.00;93.60
38500;DHT22;24269;51.894;4.622;2022-08-25T15:38:51;35.70;94.30
38500;DHT22;24269;51.894;4.622;2022-08-25T15:41:18;35.20;94.60
38500;DHT22;24269;51.894;4.622;2022-08-25T15:43:44;34.90;95.70
38500;DHT22;24269;51.894;4.622;2022-08-25T15:46:12;34.40;96.20
38500;DHT22;24269;51.894;4.622;2022-08-25T15:48:41;33.60;96.20
38500;DHT22;24269;51.894;4.622;2022-08-25T15:51:06;32.80;97.70
38500;DHT22;24269;51.894;4.622;2022-08-25T15:53:33;32.00;98.90
38500;DHT22;24269;51.894;4.622;2022-08-25T15:55:59;31.40;99.90
38500;DHT22;24269;51.894;4.622;2022-08-25T15:58:26;30.80;99.90
38500;DHT22;24269;51.894;4.622;2022-08-25T16:00:52;30.40;99.90
38500;DHT22;24269;51.894;4.622;2022-08-25T16:03:18;30.00;99.90
38500;DHT22;24269;51.894;4.622;2022-08-25T16:05:44;29.70;99.90
38500;DHT22;24269;51.894;4.622;2022-08-25T16:08:10;29.60;99.90
38500;DHT22;24269;51.894;4.622;2022-08-25T16:10:39;29.40;99.90
38500;DHT22;24269;51.894;4.622;2022-08-25T16:13:05;29.20;99.90
38500;DHT22;24269;51.894;4.622;2022-08-25T16:15:31;29.00;99.90
38500;DHT22;24269;51.894;4.622;2022-08-25T16:17:58;28.80;99.90
38500;DHT22;24269;51.894;4.622;2022-08-25T16:20:25;28.60;99.90
38500;DHT22;24269;51.894;4.622;2022-08-25T16:22:51;28.40;99.90
38500;DHT22;24269;51.894;4.622;2022-08-25T16:25:17;28.20;99.90
38500;DHT22;24269;51.894;4.622;2022-08-25T16:27:43;28.10;99.90
38500;DHT22;24269;51.894;4.622;2022-08-25T16:30:10;27.90;99.90
38500;DHT22;24269;51.894;4.622;2022-08-25T16:32:37;27.80;99.90
38500;DHT22;24269;51.894;4.622;2022-08-25T16:35:03;27.70;99.90
38500;DHT22;24269;51.894;4.622;2022-08-25T16:37:32;27.60;99.90
38500;DHT22;24269;51.894;4.622;2022-08-25T16:39:58;27.60;99.90
38500;DHT22;24269;51.894;4.622;2022-08-25T16:42:23;27.50;99.90
38500;DHT22;24269;51.894;4.622;2022-08-25T16:44:50;27.50;99.90
38500;DHT22;24269;51.894;4.622;2022-08-25T16:47:16;27.40;99.90
38500;DHT22;24269;51.894;4.622;2022-08-25T16:49:42;27.20;99.90
38500;DHT22;24269;51.894;4.622;2022-08-25T16:52:08;27.20;99.90
38500;DHT22;24269;51.894;4.622;2022-08-25T16:54:52;27.10;99.90
38500;DHT22;24269;51.894;4.622;2022-08-25T16:57:38;27.10;99.90
38500;DHT22;24269;51.894;4.622;2022-08-25T17:00:05;27.00;99.90
38500;DHT22;24269;51.894;4.622;2022-08-25T17:02:31;27.00;99.90
38500;DHT22;24269;51.894;4.622;2022-08-25T17:04:57;27.00;99.90
38500;DHT22;24269;51.894;4.622;2022-08-25T17:07:23;26.90;99.90
38500;DHT22;24269;51.894;4.622;2022-08-25T17:09:49;26.80;99.90
38500;DHT22;24269;51.894;4.622;2022-08-25T17:12:14;26.70;99.90
38500;DHT22;24269;51.894;4.622;2022-08-25T17:14:40;26.60;99.90
38500;DHT22;24269;51.894;4.622;2022-08-25T17:17:06;26.50;99.90
38500;DHT22;24269;51.894;4.622;2022-08-25T17:19:31;26.40;99.90
38500;DHT22;24269;51.894;4.622;2022-08-25T17:21:57;26.30;99.90
38500;DHT22;24269;51.894;4.622;2022-08-25T17:24:23;26.20;99.90
38500;DHT22;24269;51.894;4.622;2022-08-25T17:26:49;26.10;99.90
38500;DHT22;24269;51.894;4.622;2022-08-25T17:29:16;26.10;99.90
38500;DHT22;24269;51.894;4.622;2022-08-25T17:31:42;26.10;99.90
38500;DHT22;24269;51.894;4.622;2022-08-25T17:34:12;26.00;99.90